Time;durP1;ratioP1;P1;durP2;ratioP2;P2;SDS_P1;SDS_P2;PMS_P1;PMS_P2;Temp;Humidity;BMP_temperature;BMP_pressure;BME280_temperature;BME280_humidity;BME280_pressure;Samples;Min_cycle;Max_cycle;Signal;HPM_P1;HPM_P2
2021/06/09 00:01:52;;;;;;;7.32;5.35;;;;;;;15.13;66.31;101936.16;5071621;28;20062;-82
2021/06/09 00:04:18;;;;;;;9.45;4.95;;;;;;;15.10;66.26;101946.78;5058622;28;20040;-81
2021/06/09 00:06:45;;;;;;;8.70;5.50;;;;;;;15.07;65.79;101942.50;5054381;28;20037;-80
2021/06/09 00:09:14;;;;;;;8.18;4.40;;;;;;;15.14;66.19;101966.81;5041736;28;20047;-81
2021/06/09 00:11:41;;;;;;;7.90;4.53;;;;;;;15.10;66.16;101968.69;5048786;28;20052;-80
2021/06/09 00:14:07;;;;;;;10.32;5.53;;;;;;;15.04;66.04;101967.13;5039819;28;20489;-80
2021/06/09 00:16:34;;;;;;;13.20;6.10;;;;;;;15.03;65.85;101968.03;5042157;28;20497;-80
2021/06/09 00:19:00;;;;;;;8.75;5.03;;;;;;;14.87;66.46;101956.38;5034750;28;20053;-80
2021/06/09 00:21:26;;;;;;;7.93;4.65;;;;;;;14.89;66.56;101968.56;5034139;28;20042;-80
2021/06/09 00:23:53;;;;;;;6.05;3.45;;;;;;;14.72;66.66;101942.00;5046746;28;20060;-81
2021/06/09 00:26:22;;;;;;;6.55;4.20;;;;;;;14.86;66.61;101962.56;5038777;28;20053;-81
2021/06/09 00:28:53;;;;;;;5.65;4.60;;;;;;;14.83;66.77;101968.78;5040995;28;20063;-81
2021/06/09 00:31:20;;;;;;;8.15;4.32;;;;;;;14.70;66.52;101943.84;5029637;28;20401;-81
2021/06/09 00:33:49;;;;;;;7.35;4.72;;;;;;;14.81;66.80;101961.88;5061876;28;20051;-80
2021/06/09 00:36:15;;;;;;;7.05;4.07;;;;;;;14.79;66.82;101963.69;5016692;28;20084;-80
2021/06/09 00:38:48;;;;;;;5.70;4.28;;;;;;;14.63;66.89;101940.53;5045019;28;20041;-81
2021/06/09 00:41:19;;;;;;;4.75;4.22;;;;;;;14.70;67.09;101957.00;5045982;28;20067;-80
2021/06/09 00:43:47;;;;;;;5.50;4.00;;;;;;;14.58;67.29;101948.56;5045878;28;20071;-81
2021/06/09 00:46:15;;;;;;;7.55;4.30;;;;;;;14.69;67.19;101964.00;5030721;28;20084;-80
2021/06/09 00:48:45;;;;;;;6.03;4.00;;;;;;;14.63;67.29;101958.94;5047489;28;20493;-81
2021/06/09 00:51:17;;;;;;;6.20;4.30;;;;;;;14.59;67.33;101965.22;5055614;28;20048;-81
2021/06/09 00:53:54;;;;;;;5.78;4.15;;;;;;;14.31;67.47;101923.28;5040581;28;20065;-80
2021/06/09 00:56:30;;;;;;;5.20;3.50;;;;;;;14.58;67.50;101974.00;5052796;28;20047;-80
2021/06/09 00:58:58;;;;;;;7.25;4.10;;;;;;;14.53;67.74;101968.91;5038909;28;20049;-80
2021/06/09 01:01:27;;;;;;;5.63;4.32;;;;;;;14.54;67.74;101965.38;5052409;28;20528;-80
2021/06/09 01:03:59;;;;;;;5.38;4.28;;;;;;;14.37;67.93;101934.41;5059674;28;20049;-80
2021/06/09 01:06:47;;;;;;;9.60;4.32;;;;;;;14.35;68.20;101940.63;5029596;28;20131;-78
2021/06/09 01:09:15;;;;;;;11.38;4.35;;;;;;;14.46;68.03;101951.63;5031651;28;20060;-80
2021/06/09 01:11:43;;;;;;;4.90;4.10;;;;;;;14.33;68.04;101938.06;5053340;28;20099;-79
2021/06/09 01:14:09;;;;;;;5.88;4.20;;;;;;;14.36;68.24;101950.25;5052280;28;20051;-81
2021/06/09 01:16:35;;;;;;;5.45;3.90;;;;;;;14.30;68.27;101955.72;5051972;28;20483;-81
2021/06/09 01:19:02;;;;;;;6.15;3.75;;;;;;;14.32;68.47;101961.75;5052823;28;20057;-81
2021/06/09 01:21:30;;;;;;;5.97;4.32;;;;;;;14.27;68.66;101964.56;5035088;28;20119;-81
2021/06/09 01:23:58;;;;;;;10.02;5.00;;;;;;;13.66;68.42;101863.28;5051895;28;20049;-81
2021/06/09 01:26:28;;;;;;;5.97;4.07;;;;;;;14.24;68.51;101955.00;5039567;28;20061;-80
2021/06/09 01:28:56;;;;;;;5.93;4.65;;;;;;;14.22;68.89;101961.19;5034086;28;20045;-81
2021/06/09 01:31:23;;;;;;;5.00;4.15;;;;;;;13.98;68.84;101937.47;5036456;28;20040;-80
2021/06/09 01:33:50;;;;;;;5.72;4.05;;;;;;;14.14;68.96;101965.88;5043603;28;20095;-81
2021/06/09 01:36:21;;;;;;;6.97;4.47;;;;;;;14.13;68.93;101958.88;5034512;28;20057;-80
2021/06/09 01:38:50;;;;;;;7.45;4.38;;;;;;;14.11;68.79;101953.69;5028735;28;20049;-81
2021/06/09 01:41:21;;;;;;;8.68;4.75;;;;;;;14.04;68.96;101942.53;5034050;28;20045;-81
2021/06/09 01:43:47;;;;;;;7.35;4.50;;;;;;;13.65;69.33;101894.81;5041753;28;20053;-80
2021/06/09 01:46:16;;;;;;;10.13;5.00;;;;;;;13.96;69.20;101952.41;5061881;28;20052;-80
2021/06/09 01:48:43;;;;;;;6.50;4.85;;;;;;;14.00;69.32;101964.53;5062957;28;20041;-79
2021/06/09 01:51:09;;;;;;;7.22;4.50;;;;;;;14.01;69.40;101958.41;5051991;28;20048;-80
2021/06/09 01:53:35;;;;;;;5.50;4.25;;;;;;;13.95;69.61;101953.31;5045122;28;20421;-81
2021/06/09 01:56:02;;;;;;;5.07;4.15;;;;;;;13.83;69.68;101943.22;5049810;28;20057;-77
2021/06/09 01:58:28;;;;;;;6.88;4.18;;;;;;;13.84;69.69;101939.69;5052205;28;20045;-80
2021/06/09 02:00:55;;;;;;;6.90;4.50;;;;;;;13.90;69.63;101953.47;5040433;28;20068;-80
2021/06/09 02:03:21;;;;;;;6.60;4.35;;;;;;;13.81;69.83;101943.28;5040089;28;20382;-81
2021/06/09 02:05:47;;;;;;;6.50;4.95;;;;;;;13.87;69.93;101955.34;5052656;28;20072;-81
2021/06/09 02:08:14;;;;;;;6.85;5.28;;;;;;;13.72;70.27;101938.31;5042358;28;20482;-81
2021/06/09 02:10:41;;;;;;;6.47;4.55;;;;;;;13.72;70.45;101941.81;5035199;28;20052;-81
2021/06/09 02:13:10;;;;;;;7.10;5.32;;;;;;;13.71;70.65;101947.94;5021782;28;20448;-79
2021/06/09 02:15:37;;;;;;;6.72;5.00;;;;;;;13.61;70.30;101930.78;5047972;28;20421;-79
2021/06/09 02:18:09;;;;;;;6.28;4.90;;;;;;;13.67;70.87;101948.09;5035658;28;20052;-78
2021/06/09 02:20:43;;;;;;;6.63;5.28;;;;;;;13.54;71.11;101935.34;5018640;28;20457;-82
2021/06/09 02:23:16;;;;;;;8.70;5.80;;;;;;;13.58;71.35;101944.00;5052010;28;20136;-79
2021/06/09 02:25:46;;;;;;;7.93;5.97;;;;;;;13.69;71.08;101954.16;5055162;28;20485;-78
2021/06/09 02:28:12;;;;;;;6.07;5.43;;;;;;;13.65;71.48;101947.31;5046256;28;20405;-79
2021/06/09 02:30:41;;;;;;;8.40;5.18;;;;;;;13.36;71.52;101912.28;5052488;28;20042;-78
2021/06/09 02:33:07;;;;;;;6.43;5.38;;;;;;;13.58;71.68;101936.97;5058245;28;20555;-78
2021/06/09 02:35:37;;;;;;;9.00;5.82;;;;;;;13.69;71.39;101948.91;5039065;28;20100;-79
2021/06/09 02:38:04;;;;;;;7.03;4.97;;;;;;;13.67;71.43;101948.09;5017908;28;20069;-79
2021/06/09 02:40:32;;;;;;;6.32;5.13;;;;;;;13.64;71.35;101938.56;5041280;28;20037;-80
2021/06/09 02:42:58;;;;;;;7.38;5.68;;;;;;;13.61;71.25;101931.63;5055117;28;20473;-79
2021/06/09 02:45:24;;;;;;;6.20;5.20;;;;;;;13.64;71.42;101940.34;5050538;28;20037;-80
2021/06/09 02:47:53;;;;;;;10.65;6.13;;;;;;;13.61;71.39;101942.13;5036882;28;20053;-81
2021/06/09 02:50:22;;;;;;;7.82;5.88;;;;;;;13.56;71.65;101944.03;5019284;28;20048;-81
2021/06/09 02:53:25;;;;;;;6.28;5.57;;;;;;;13.54;71.65;101937.13;5037209;28;20056;-80
2021/06/09 02:56:15;;;;;;;7.50;5.70;;;;;;;13.54;71.84;101937.13;5036153;28;20061;-80
2021/06/09 02:59:03;;;;;;;8.60;5.05;;;;;;;13.52;71.86;101939.78;5036307;28;20409;-81
2021/06/09 03:01:36;;;;;;;7.53;6.00;;;;;;;13.53;72.11;101938.03;5045508;28;20648;-80
2021/06/09 03:04:16;;;;;;;8.82;5.53;;;;;;;13.52;71.93;101937.16;5047186;28;20197;-81
2021/06/09 03:07:03;;;;;;;6.68;5.53;;;;;;;13.43;71.84;101925.19;5044079;28;20395;-81
2021/06/09 03:09:34;;;;;;;8.98;6.57;;;;;;;13.32;72.13;101932.50;5023240;28;20048;-81
2021/06/09 03:12:44;;;;;;;8.27;6.30;;;;;;;13.23;72.58;101938.00;5056193;28;20041;-81
2021/06/09 03:15:23;;;;;;;7.57;6.05;;;;;;;13.12;72.79;101936.56;5013261;28;20042;-80
2021/06/09 03:18:05;;;;;;;8.18;7.30;;;;;;;13.10;72.69;101937.53;5006300;28;20061;-81
2021/06/09 03:20:40;;;;;;;6.53;5.85;;;;;;;13.03;73.07;101935.97;5035806;28;20064;-81
2021/06/09 03:23:15;;;;;;;7.53;6.72;;;;;;;13.01;72.89;101941.28;5054729;28;20100;-80
2021/06/09 03:25:51;;;;;;;7.53;6.72;;;;;;;13.10;72.69;101942.75;5038191;28;20042;-80
2021/06/09 03:28:23;;;;;;;7.53;6.53;;;;;;;12.97;73.02;101945.75;5046297;28;20049;-81
2021/06/09 03:31:11;;;;;;;7.50;6.47;;;;;;;12.78;73.00;101927.03;5077070;28;20052;-80
2021/06/09 03:33:42;;;;;;;8.52;7.10;;;;;;;12.80;73.08;101934.84;5060951;28;20037;-79
2021/06/09 03:36:11;;;;;;;7.95;6.10;;;;;;;12.29;73.53;101868.13;5071130;28;20033;-80
2021/06/09 03:38:44;;;;;;;8.30;6.93;;;;;;;12.72;73.34;101931.56;5054371;28;20052;-80
2021/06/09 03:41:13;;;;;;;7.63;6.82;;;;;;;12.73;73.65;101939.41;5056486;28;20429;-81
2021/06/09 03:43:45;;;;;;;7.65;6.85;;;;;;;12.67;73.56;101929.09;5049756;28;20392;-80
2021/06/09 03:46:13;;;;;;;8.40;6.85;;;;;;;12.72;73.59;101934.19;5055940;28;20056;-83
2021/06/09 03:48:43;;;;;;;8.48;6.47;;;;;;;12.44;73.46;101885.19;5045555;28;20529;-82
2021/06/09 03:51:10;;;;;;;8.48;7.07;;;;;;;12.59;73.54;101913.56;5035453;28;20049;-81
2021/06/09 03:53:39;;;;;;;7.57;6.72;;;;;;;12.74;73.49;101925.41;5047937;28;20055;-80
2021/06/09 03:56:08;;;;;;;7.55;6.68;;;;;;;12.69;73.63;101915.94;5055641;28;20052;-80
2021/06/09 03:58:34;;;;;;;9.57;6.75;;;;;;;12.72;73.57;101929.81;5041809;28;20111;-80
2021/06/09 04:01:01;;;;;;;10.52;6.97;;;;;;;12.56;73.41;101905.81;5050436;28;20080;-80
2021/06/09 04:03:29;;;;;;;9.43;6.30;;;;;;;12.70;73.82;101925.53;5035328;28;20049;-80
2021/06/09 04:06:17;;;;;;;8.82;6.97;;;;;;;12.61;73.56;101896.06;5028899;28;20076;-80
2021/06/09 04:08:45;;;;;;;8.43;6.93;;;;;;;12.60;73.58;101888.25;5035674;28;20048;-80
2021/06/09 04:11:14;;;;;;;8.48;6.75;;;;;;;12.73;73.47;101910.59;5035567;28;20069;-80
2021/06/09 04:13:41;;;;;;;10.63;7.72;;;;;;;12.72;73.67;101905.38;5036558;28;20049;-80
2021/06/09 04:16:08;;;;;;;9.35;7.55;;;;;;;12.74;73.94;101904.44;5054863;28;20053;-80
2021/06/09 04:18:36;;;;;;;10.38;7.65;;;;;;;12.76;73.80;101904.41;5043668;28;20425;-80
2021/06/09 04:21:05;;;;;;;9.45;8.30;;;;;;;12.76;73.93;101907.88;5040910;28;20468;-81
2021/06/09 04:23:31;;;;;;;8.40;7.60;;;;;;;12.74;73.81;101908.81;5036874;28;20053;-79
2021/06/09 04:25:58;;;;;;;10.82;8.18;;;;;;;12.69;74.12;101905.47;5050056;28;20049;-80
2021/06/09 04:28:25;;;;;;;9.50;7.80;;;;;;;12.69;74.37;101905.47;5053590;28;20432;-80
2021/06/09 04:30:52;;;;;;;9.75;7.55;;;;;;;12.72;74.07;101908.00;5037064;28;20045;-80
2021/06/09 04:33:28;;;;;;;8.85;7.95;;;;;;;12.70;74.33;101905.41;5043931;28;20469;-80
2021/06/09 04:35:54;;;;;;;8.50;7.57;;;;;;;12.68;74.26;101898.50;5053611;28;20045;-80
2021/06/09 04:38:20;;;;;;;9.98;7.45;;;;;;;12.59;74.50;101882.13;5045682;28;20045;-82
2021/06/09 04:40:49;;;;;;;10.93;7.80;;;;;;;12.63;74.20;101882.91;5042905;28;20071;-82
2021/06/09 04:43:15;;;;;;;9.25;8.32;;;;;;;12.69;74.34;101892.38;5054300;28;20049;-82
2021/06/09 04:45:41;;;;;;;9.05;7.80;;;;;;;12.80;74.16;101898.16;5049710;28;20046;-78
2021/06/09 04:48:14;;;;;;;9.82;8.55;;;;;;;12.86;73.84;101898.00;5034439;28;20517;-81
2021/06/09 04:50:42;;;;;;;9.82;8.43;;;;;;;12.85;73.96;101905.91;5041516;28;20063;-83
2021/06/09 04:53:11;;;;;;;11.50;8.50;;;;;;;12.40;74.25;101849.50;5053916;28;20056;-80
2021/06/09 04:55:44;;;;;;;10.20;8.98;;;;;;;13.04;73.55;101908.88;5054564;28;20064;-83
2021/06/09 04:58:11;;;;;;;8.90;7.70;;;;;;;13.74;70.89;101898.00;5054274;28;20049;-83
2021/06/09 05:00:39;;;;;;;9.43;7.03;;;;;;;14.38;68.73;101894.13;5032628;28;20498;-80
2021/06/09 05:03:05;;;;;;;11.40;7.65;;;;;;;14.65;67.22;101882.69;5036698;28;20045;-82
2021/06/09 05:05:33;;;;;;;10.70;7.72;;;;;;;14.83;66.79;101900.44;5020478;28;20159;-81
2021/06/09 05:07:59;;;;;;;9.43;8.38;;;;;;;14.57;66.51;101864.56;5054076;28;20052;-82
2021/06/09 05:10:25;;;;;;;10.48;7.13;;;;;;;15.07;66.33;101907.47;5041889;28;20108;-80
2021/06/09 05:12:55;;;;;;;9.25;8.35;;;;;;;15.32;64.57;101881.94;5053825;28;20040;-80
2021/06/09 05:15:29;;;;;;;9.73;7.18;;;;;;;15.67;63.58;101890.19;5037005;28;20044;-81
2021/06/09 05:17:57;;;;;;;8.57;7.55;;;;;;;15.60;64.18;101911.53;5053767;28;20045;-80
2021/06/09 05:20:35;;;;;;;9.77;7.80;;;;;;;14.99;65.77;101899.84;5055132;28;20049;-78
2021/06/09 05:23:19;;;;;;;8.90;7.75;;;;;;;14.30;68.12;101909.28;5054733;28;20049;-81
2021/06/09 05:25:49;;;;;;;9.40;7.78;;;;;;;14.00;69.48;101901.53;5054563;28;20508;-81
2021/06/09 05:28:16;;;;;;;10.02;7.85;;;;;;;13.80;70.01;101883.81;5038256;28;20080;-80
2021/06/09 05:30:43;;;;;;;10.73;7.95;;;;;;;13.87;70.34;101903.69;5038641;28;20090;-80
2021/06/09 05:33:10;;;;;;;9.77;7.85;;;;;;;13.52;70.69;101839.25;5055117;28;20052;-81
2021/06/09 05:35:36;;;;;;;10.60;8.30;;;;;;;13.91;70.27;101893.97;5055365;28;20087;-80
2021/06/09 05:38:03;;;;;;;11.73;7.90;;;;;;;13.81;71.25;101898.66;5056184;28;20117;-80
2021/06/09 05:40:30;;;;;;;10.02;7.90;;;;;;;13.79;71.10;101897.84;5051687;28;20045;-80
2021/06/09 05:42:56;;;;;;;10.18;8.55;;;;;;;13.76;71.49;101901.41;5062183;28;20046;-81
2021/06/09 05:45:31;;;;;;;11.63;8.50;;;;;;;13.79;71.59;101908.34;5054488;28;20109;-81
2021/06/09 05:47:58;;;;;;;11.05;8.48;;;;;;;14.00;71.23;101914.66;5061615;28;20052;-82
2021/06/09 05:50:26;;;;;;;11.48;7.80;;;;;;;14.05;70.79;101910.13;5057441;28;20045;-81
2021/06/09 05:52:59;;;;;;;9.82;8.45;;;;;;;13.99;71.01;101901.56;5046304;28;20057;-81
2021/06/09 05:55:27;;;;;;;10.15;8.63;;;;;;;14.14;70.79;101910.72;5040869;28;20095;-81
2021/06/09 05:57:55;;;;;;;12.68;8.32;;;;;;;13.79;70.86;101845.34;5048712;28;20478;-81
2021/06/09 06:00:25;;;;;;;9.40;7.78;;;;;;;14.37;70.20;101910.78;5044899;28;20044;-82
2021/06/09 06:02:52;;;;;;;8.70;6.90;;;;;;;14.22;69.83;101859.66;5053652;28;20048;-82
2021/06/09 06:05:19;;;;;;;8.93;7.40;;;;;;;14.51;69.79;101906.81;5044027;28;20045;-79
2021/06/09 06:07:46;;;;;;;9.60;7.80;;;;;;;14.24;69.64;101854.34;5055773;28;20053;-80
2021/06/09 06:10:16;;;;;;;11.02;8.15;;;;;;;14.61;69.46;101899.47;5052480;28;20466;-81
2021/06/09 06:12:44;;;;;;;7.50;6.80;;;;;;;14.51;69.25;101864.78;5055519;28;20361;-81
2021/06/09 06:15:12;;;;;;;10.85;7.90;;;;;;;14.88;68.97;101909.00;5059574;28;20053;-81
2021/06/09 06:17:42;;;;;;;7.93;6.95;;;;;;;14.67;68.87;101865.09;5060238;28;20079;-82
2021/06/09 06:20:20;;;;;;;7.55;6.75;;;;;;;15.11;68.58;101924.84;5059167;28;20049;-82
2021/06/09 06:22:49;;;;;;;8.60;7.40;;;;;;;14.95;68.89;101906.16;5057687;28;20045;-82
2021/06/09 06:25:22;;;;;;;9.10;6.55;;;;;;;14.96;69.44;101916.59;5057376;28;20056;-80
2021/06/09 06:27:52;;;;;;;10.50;6.80;;;;;;;14.98;69.48;101908.69;5052731;28;20053;-82
2021/06/09 06:30:22;;;;;;;9.35;6.53;;;;;;;15.09;69.33;101905.63;5039920;28;20157;-81
2021/06/09 06:32:51;;;;;;;7.50;6.55;;;;;;;15.12;69.58;101913.41;5048297;28;20068;-82
2021/06/09 06:35:20;;;;;;;10.82;7.22;;;;;;;15.28;69.29;101911.03;5049877;28;20049;-81
2021/06/09 06:37:48;;;;;;;8.32;7.22;;;;;;;15.28;68.72;101877.72;5052238;28;20052;-81
2021/06/09 06:40:22;;;;;;;11.23;7.03;;;;;;;15.74;68.14;101911.00;5040622;28;20045;-81
2021/06/09 06:42:51;;;;;;;10.52;7.40;;;;;;;15.82;67.75;101901.03;5058710;28;20064;-81
2021/06/09 06:45:19;;;;;;;11.40;7.22;;;;;;;15.87;67.88;101907.00;5050017;28;20049;-80
2021/06/09 06:47:45;;;;;;;8.73;6.47;;;;;;;15.84;67.57;101883.41;5058635;28;20037;-78
2021/06/09 06:50:17;;;;;;;10.40;6.93;;;;;;;15.89;67.86;101897.22;5051108;28;20056;-81
2021/06/09 06:52:44;;;;;;;10.15;6.82;;;;;;;15.67;68.09;101870.91;5033263;28;20064;-81
2021/06/09 06:55:12;;;;;;;7.80;6.88;;;;;;;15.98;67.88;101917.91;5055814;28;20071;-80
2021/06/09 06:57:39;;;;;;;10.02;6.88;;;;;;;15.95;67.80;101920.69;5039204;28;20050;-81
2021/06/09 07:00:10;;;;;;;12.32;7.05;;;;;;;15.85;68.10;101911.44;5042734;28;20139;-81
2021/06/09 07:02:38;;;;;;;8.60;6.45;;;;;;;15.69;67.92;101867.28;5065712;28;20041;-81
2021/06/09 07:05:07;;;;;;;9.55;6.47;;;;;;;15.98;67.77;101912.66;5062743;28;20046;-81
2021/06/09 07:07:35;;;;;;;8.05;6.70;;;;;;;16.24;67.26;101928.28;5060915;28;20049;-80
2021/06/09 07:10:07;;;;;;;10.82;7.20;;;;;;;16.49;66.38;101910.50;5078633;28;20028;-82
2021/06/09 07:12:39;;;;;;;8.80;6.53;;;;;;;16.83;65.40;101913.41;5072952;28;20056;-83
2021/06/09 07:15:10;;;;;;;12.10;7.40;;;;;;;16.76;65.25;101897.03;5040927;28;20087;-81
2021/06/09 07:17:44;;;;;;;9.98;6.85;;;;;;;17.19;64.73;101912.69;5043261;28;20103;-82
2021/06/09 07:20:13;;;;;;;8.90;5.97;;;;;;;17.58;63.93;101917.00;5048179;28;20049;-79
2021/06/09 07:22:41;;;;;;;8.98;7.40;;;;;;;17.80;60.98;101908.03;5044804;28;20049;-77
2021/06/09 07:25:09;;;;;;;7.90;7.05;;;;;;;17.99;60.65;101917.72;5038197;28;20092;-80
2021/06/09 07:27:41;;;;;;;7.18;6.30;;;;;;;18.11;58.60;101884.53;5041195;28;20046;-81
2021/06/09 07:30:10;;;;;;;6.85;6.15;;;;;;;18.57;57.96;101913.88;5051450;28;20037;-79
2021/06/09 07:32:40;;;;;;;9.02;6.78;;;;;;;18.60;57.57;101913.69;5058161;28;20048;-80
2021/06/09 07:35:07;;;;;;;11.13;7.35;;;;;;;18.70;57.08;101903.47;5048560;28;20452;-81
2021/06/09 07:37:47;;;;;;;8.80;6.35;;;;;;;18.79;56.84;101905.63;5044683;28;20091;-81
2021/06/09 07:40:19;;;;;;;8.90;6.45;;;;;;;18.86;57.66;101914.13;5054722;28;20049;-81
2021/06/09 07:42:49;;;;;;;9.55;7.15;;;;;;;18.75;57.36;101898.81;5059529;28;20045;-81
2021/06/09 07:45:18;;;;;;;9.13;8.18;;;;;;;18.81;57.71;101921.41;5048708;28;20052;-82
2021/06/09 07:47:47;;;;;;;7.97;7.20;;;;;;;18.84;58.12;101914.19;5041754;28;20050;-83
2021/06/09 07:50:19;;;;;;;10.13;7.10;;;;;;;18.92;57.81;101920.88;5055437;28;20048;-80
2021/06/09 07:52:47;;;;;;;8.18;7.30;;;;;;;18.63;58.74;101924.13;5046781;28;20045;-83
2021/06/09 07:55:13;;;;;;;8.80;7.45;;;;;;;18.76;58.65;101924.34;5038255;28;20045;-81
2021/06/09 07:57:44;;;;;;;11.30;6.80;;;;;;;18.78;57.78;101887.22;5061499;28;20041;-82
2021/06/09 08:00:12;;;;;;;7.55;6.47;;;;;;;19.08;57.73;101926.19;5028862;28;20777;-81
2021/06/09 08:02:43;;;;;;;9.60;6.63;;;;;;;19.58;56.42;101930.47;5055645;28;20041;-81
2021/06/09 08:05:12;;;;;;;9.88;6.97;;;;;;;19.84;55.77;101914.91;5047201;28;20049;-80
2021/06/09 08:07:40;;;;;;;7.63;6.82;;;;;;;19.90;55.63;101929.59;5038315;28;20069;-80
2021/06/09 08:10:11;;;;;;;8.95;6.68;;;;;;;19.72;56.24;101918.25;5055966;28;20052;-82
2021/06/09 08:12:39;;;;;;;9.90;6.95;;;;;;;19.38;56.00;101925.44;5025944;28;20054;-81
2021/06/09 08:15:08;;;;;;;8.45;7.57;;;;;;;18.78;57.16;101905.72;5038630;28;20048;-82
2021/06/09 08:17:38;;;;;;;10.82;7.13;;;;;;;18.70;57.73;101882.31;5051495;28;20570;-80
2021/06/09 08:20:08;;;;;;;8.25;5.85;;;;;;;19.46;55.80;101926.72;5037090;28;20079;-81
2021/06/09 08:22:34;;;;;;;8.00;5.43;;;;;;;19.52;54.74;101907.00;5051134;28;20405;-82
2021/06/09 08:25:00;;;;;;;8.77;5.13;;;;;;;19.61;54.39;101921.50;5049890;28;20049;-84
2021/06/09 08:27:31;;;;;;;6.40;4.95;;;;;;;19.61;53.76;101932.09;5049496;28;20468;-83
2021/06/09 08:29:57;;;;;;;7.32;4.82;;;;;;;19.34;54.76;101927.41;5040502;28;20050;-81
2021/06/09 08:32:27;;;;;;;5.45;4.88;;;;;;;19.10;54.89;101933.09;5038224;28;20100;-81
2021/06/09 08:34:53;;;;;;;9.50;4.80;;;;;;;19.01;55.01;101897.41;5052261;28;20053;-81
2021/06/09 08:37:20;;;;;;;6.25;5.30;;;;;;;19.00;55.69;101918.69;5057550;28;20045;-81
2021/06/09 08:39:46;;;;;;;5.90;5.00;;;;;;;19.16;55.74;101924.84;5056893;28;20048;-81
2021/06/09 08:42:15;;;;;;;7.53;4.45;;;;;;;19.48;54.47;101923.97;5027470;28;20371;-80
2021/06/09 08:44:43;;;;;;;5.13;3.90;;;;;;;19.56;53.67;101913.81;5044295;28;20052;-81
2021/06/09 08:47:10;;;;;;;5.30;3.72;;;;;;;19.76;52.95;101917.09;5039373;28;20045;-82
2021/06/09 08:49:45;;;;;;;5.75;3.33;;;;;;;19.83;52.43;101921.13;5043001;28;20068;-80
2021/06/09 08:52:13;;;;;;;4.55;3.00;;;;;;;20.06;51.99;101911.84;5043807;28;20524;-82
2021/06/09 08:54:49;;;;;;;5.45;3.28;;;;;;;20.02;50.06;101910.34;5037597;28;20041;-81
2021/06/09 08:57:17;;;;;;;3.75;2.95;;;;;;;20.00;50.42;101910.41;5039356;28;20049;-83
2021/06/09 08:59:44;;;;;;;4.45;3.50;;;;;;;20.27;50.58;101919.47;5051421;28;20053;-80
2021/06/09 09:02:14;;;;;;;4.50;2.65;;;;;;;20.39;49.10;101878.94;5052157;28;20048;-82
2021/06/09 09:04:42;;;;;;;4.38;2.47;;;;;;;20.77;48.35;101902.28;5039792;28;20049;-82
2021/06/09 09:07:11;;;;;;;4.25;2.85;;;;;;;20.42;49.49;101904.44;5039223;28;20052;-81
2021/06/09 09:09:40;;;;;;;4.07;2.70;;;;;;;20.44;49.54;101900.72;5052614;28;20102;-79
2021/06/09 09:12:07;;;;;;;4.57;2.83;;;;;;;20.48;49.60;101899.63;5049001;28;20041;-81
2021/06/09 09:14:34;;;;;;;3.88;3.00;;;;;;;20.40;50.60;101898.38;5044258;28;20103;-80
2021/06/09 09:17:20;;;;;;;4.38;3.17;;;;;;;20.37;50.16;101902.03;5055654;28;20102;-79
2021/06/09 09:19:47;;;;;;;5.25;3.15;;;;;;;20.18;49.97;101882.91;5049625;28;20417;-79
2021/06/09 09:22:34;;;;;;;5.70;2.97;;;;;;;20.45;49.70;101891.84;5051232;28;20456;-81
2021/06/09 09:25:11;;;;;;;4.75;2.88;;;;;;;20.29;49.20;101878.66;5041424;28;20049;-81
2021/06/09 09:27:39;;;;;;;4.13;2.42;;;;;;;20.56;49.47;101891.19;5037286;28;20542;-80
2021/06/09 09:30:08;;;;;;;3.30;2.38;;;;;;;20.74;48.45;101891.88;5023176;28;20401;-82
2021/06/09 09:32:36;;;;;;;3.88;2.55;;;;;;;20.54;48.56;101878.97;5038503;28;20383;-80
2021/06/09 09:35:09;;;;;;;3.28;2.20;;;;;;;20.46;48.04;101890.88;5044158;28;20044;-77
2021/06/09 09:37:36;;;;;;;3.47;2.08;;;;;;;20.56;46.60;101898.28;5024211;28;20091;-80
2021/06/09 09:40:16;;;;;;;3.30;1.73;;;;;;;20.47;46.76;101889.09;5024140;28;20046;-82
2021/06/09 09:42:48;;;;;;;4.10;2.05;;;;;;;20.56;47.53;101900.94;5042309;28;20092;-80
2021/06/09 09:45:28;;;;;;;3.97;2.38;;;;;;;20.99;46.72;101898.28;5043247;28;20405;-80
2021/06/09 09:48:03;;;;;;;5.10;1.92;;;;;;;20.83;46.07;101898.41;5031151;28;20046;-80
2021/06/09 09:50:34;;;;;;;4.32;2.15;;;;;;;21.09;46.61;101901.22;5056310;28;20056;-79
2021/06/09 09:53:22;;;;;;;5.93;2.35;;;;;;;21.10;46.23;101876.38;5040782;28;20054;-81
2021/06/09 09:56:05;;;;;;;2.90;1.67;;;;;;;21.29;44.71;101910.56;5050210;28;20237;-81
2021/06/09 09:58:36;;;;;;;4.65;2.08;;;;;;;21.32;45.14;101883.78;5053552;28;20052;-80
2021/06/09 10:01:11;;;;;;;2.90;1.80;;;;;;;21.29;44.09;101905.25;5055273;28;20045;-78
2021/06/09 10:03:40;;;;;;;3.65;1.70;;;;;;;20.89;44.37;101899.84;5057131;28;20091;-80
2021/06/09 10:06:27;;;;;;;2.13;1.70;;;;;;;21.48;43.60;101896.09;5059309;28;20124;-79
2021/06/09 10:09:00;;;;;;;3.40;1.80;;;;;;;21.61;43.46;101864.28;5061241;28;20045;-80
2021/06/09 10:11:28;;;;;;;4.72;1.77;;;;;;;22.44;41.84;101889.72;5061032;28;20119;-80
2021/06/09 10:13:55;;;;;;;2.30;1.40;;;;;;;21.89;40.71;101887.19;5058128;28;20048;-78
2021/06/09 10:16:24;;;;;;;3.10;1.73;;;;;;;22.05;41.13;101889.66;5044184;28;20086;-80
2021/06/09 10:19:14;;;;;;;3.72;1.60;;;;;;;22.46;40.96;101886.00;5029101;28;20500;-80
2021/06/09 10:21:54;;;;;;;3.92;1.52;;;;;;;22.80;39.25;101896.06;5047435;28;20046;-82
2021/06/09 10:24:23;;;;;;;20.05;18.20;;;;;;;22.75;40.39;101877.75;5040629;28;20050;-81
2021/06/09 10:26:59;;;;;;;1.80;1.30;;;;;;;22.90;40.30;101885.59;5041593;28;20045;-83
2021/06/09 10:29:31;;;;;;;1.75;1.30;;;;;;;22.75;40.39;101885.72;5045358;28;20049;-80
2021/06/09 10:32:03;;;;;;;5.07;1.40;;;;;;;22.95;40.77;101894.09;5041278;28;20049;-78
2021/06/09 10:34:56;;;;;;;3.22;1.20;;;;;;;23.49;39.58;101895.56;5056776;28;20064;-82
2021/06/09 10:37:22;;;;;;;5.25;1.48;;;;;;;23.46;40.44;101893.09;5031424;28;20136;-81
2021/06/09 10:39:49;;;;;;;3.20;1.67;;;;;;;23.31;40.53;101892.44;5058100;28;20059;-80
2021/06/09 10:42:18;;;;;;;4.25;1.60;;;;;;;23.21;41.05;101892.25;5058510;28;20409;-85
2021/06/09 10:44:51;;;;;;;6.15;2.15;;;;;;;23.30;41.08;101845.44;5040292;28;20536;-79
2021/06/09 10:47:24;;;;;;;4.75;1.70;;;;;;;23.70;40.87;101898.41;5045788;28;20111;-83
2021/06/09 10:49:50;;;;;;;4.90;1.80;;;;;;;23.42;41.83;101886.31;5072398;28;20057;-82
2021/06/09 10:52:17;;;;;;;5.00;1.80;;;;;;;23.13;42.15;101858.16;5054235;28;20037;-82
2021/06/09 10:54:46;;;;;;;3.45;1.60;;;;;;;23.60;42.07;101884.09;5043179;28;20049;-83
2021/06/09 10:57:13;;;;;;;4.63;1.60;;;;;;;23.38;42.98;101872.38;5066410;28;20071;-81
2021/06/09 10:59:39;;;;;;;2.30;1.55;;;;;;;23.28;43.62;101882.84;5059664;28;20049;-79
2021/06/09 11:02:31;;;;;;;3.25;1.38;;;;;;;23.62;44.05;101890.16;5052631;28;20046;-80
2021/06/09 11:05:07;;;;;;;3.75;1.30;;;;;;;23.26;45.36;101894.59;5057926;28;20049;-81
2021/06/09 11:07:41;;;;;;;5.03;1.83;;;;;;;22.89;45.96;101881.22;5109536;23;20056;-81
2021/06/09 11:10:33;;;;;;;3.13;1.40;;;;;;;23.05;45.90;101881.00;5068054;28;20475;-82
2021/06/09 11:13:00;;;;;;;8.13;2.28;;;;;;;23.50;46.11;101889.28;5068262;28;20132;-81
2021/06/09 11:15:37;;;;;;;2.40;1.33;;;;;;;23.69;45.98;101877.22;5075732;23;20068;-81
2021/06/09 11:18:41;;;;;;;3.63;1.60;;;;;;;23.23;46.49;101879.69;5042633;28;20060;-81
2021/06/09 11:21:08;;;;;;;;;;;;;;;23.11;47.54;101881.38;5031326;28;20046;-81
2021/06/09 11:23:40;;;;;;;2.45;1.70;;;;;;;23.71;46.70;101877.97;5023949;28;19976;-82
2021/06/09 11:26:28;;;;;;;3.28;1.63;;;;;;;24.40;45.17;101878.00;5021076;28;20052;-82
2021/06/09 11:28:55;;;;;;;2.90;1.70;;;;;;;24.44;45.69;101871.44;5022178;28;20423;-81
2021/06/09 11:31:30;;;;;;;3.65;1.77;;;;;;;24.58;45.28;101872.19;5040912;28;20455;-82
2021/06/09 11:34:05;;;;;;;3.70;1.77;;;;;;;24.56;45.10;101866.09;5044443;28;20049;-81
2021/06/09 11:36:43;;;;;;;3.50;2.30;;;;;;;24.30;45.65;101826.31;5047394;28;20049;-82
2021/06/09 11:39:18;;;;;;;3.53;2.38;;;;;;;24.40;45.95;101872.69;5048442;28;20499;-80
2021/06/09 11:41:46;;;;;;;4.18;2.60;;;;;;;24.33;46.62;101878.59;5047895;28;20053;-81